sensor_id;sensor_type;location;lat;lon;timestamp;temperature;humidity
32097;DHT22;18610;49.916;8.284;2023-04-06T00:00:35;3.50;99.90
32097;DHT22;18610;49.916;8.284;2023-04-06T00:03:01;3.50;99.90
32097;DHT22;18610;49.916;8.284;2023-04-06T00:05:28;3.50;99.90
32097;DHT22;18610;49.916;8.284;2023-04-06T00:07:57;3.50;99.90
32097;DHT22;18610;49.916;8.284;2023-04-06T00:10:24;3.40;99.90
32097;DHT22;18610;49.916;8.284;2023-04-06T00:12:50;3.30;99.90
32097;DHT22;18610;49.916;8.284;2023-04-06T00:15:19;3.20;99.90
32097;DHT22;18610;49.916;8.284;2023-04-06T00:17:46;3.20;99.90
32097;DHT22;18610;49.916;8.284;2023-04-06T00:20:12;3.10;99.90
32097;DHT22;18610;49.916;8.284;2023-04-06T00:22:39;3.20;99.90
32097;DHT22;18610;49.916;8.284;2023-04-06T00:25:07;3.20;99.90
32097;DHT22;18610;49.916;8.284;2023-04-06T00:27:34;3.10;99.90
32097;DHT22;18610;49.916;8.284;2023-04-06T00:30:01;3.00;99.90
32097;DHT22;18610;49.916;8.284;2023-04-06T00:32:29;3.00;99.90
32097;DHT22;18610;49.916;8.284;2023-04-06T00:34:56;3.00;99.90
32097;DHT22;18610;49.916;8.284;2023-04-06T00:37:23;2.90;99.90
32097;DHT22;18610;49.916;8.284;2023-04-06T00:39:50;2.90;99.90
32097;DHT22;18610;49.916;8.284;2023-04-06T00:42:18;2.80;99.90
32097;DHT22;18610;49.916;8.284;2023-04-06T00:44:50;2.80;99.90
32097;DHT22;18610;49.916;8.284;2023-04-06T00:47:17;2.90;99.90
32097;DHT22;18610;49.916;8.284;2023-04-06T00:49:45;2.80;99.90
32097;DHT22;18610;49.916;8.284;2023-04-06T00:52:12;2.60;99.90
32097;DHT22;18610;49.916;8.284;2023-04-06T00:54:39;2.40;99.90
32097;DHT22;18610;49.916;8.284;2023-04-06T00:57:06;2.30;99.90
32097;DHT22;18610;49.916;8.284;2023-04-06T00:59:33;2.20;99.90
32097;DHT22;18610;49.916;8.284;2023-04-06T01:02:00;2.20;99.90
32097;DHT22;18610;49.916;8.284;2023-04-06T01:04:27;2.10;99.90
32097;DHT22;18610;49.916;8.284;2023-04-06T01:06:55;2.00;99.90
32097;DHT22;18610;49.916;8.284;2023-04-06T01:09:22;1.90;99.90
32097;DHT22;18610;49.916;8.284;2023-04-06T01:11:49;1.90;99.90
32097;DHT22;18610;49.916;8.284;2023-04-06T01:14:16;2.00;99.90
32097;DHT22;18610;49.916;8.284;2023-04-06T01:16:43;2.00;99.90
32097;DHT22;18610;49.916;8.284;2023-04-06T01:19:11;2.10;99.90
32097;DHT22;18610;49.916;8.284;2023-04-06T01:21:38;2.00;99.90
32097;DHT22;18610;49.916;8.284;2023-04-06T01:24:08;1.90;99.90
32097;DHT22;18610;49.916;8.284;2023-04-06T01:26:36;2.00;99.90
32097;DHT22;18610;49.916;8.284;2023-04-06T01:29:03;2.00;99.90
32097;DHT22;18610;49.916;8.284;2023-04-06T01:31:30;1.80;99.90
32097;DHT22;18610;49.916;8.284;2023-04-06T01:33:57;1.80;99.90
32097;DHT22;18610;49.916;8.284;2023-04-06T01:36:24;1.80;99.90
32097;DHT22;18610;49.916;8.284;2023-04-06T01:38:51;1.80;99.90
32097;DHT22;18610;49.916;8.284;2023-04-06T01:41:19;1.90;99.90
32097;DHT22;18610;49.916;8.284;2023-04-06T01:43:47;1.90;99.90
32097;DHT22;18610;49.916;8.284;2023-04-06T01:46:15;1.90;99.90
32097;DHT22;18610;49.916;8.284;2023-04-06T01:48:41;1.90;99.90
32097;DHT22;18610;49.916;8.284;2023-04-06T01:51:08;1.80;99.90
32097;DHT22;18610;49.916;8.284;2023-04-06T01:53:35;1.70;99.90
32097;DHT22;18610;49.916;8.284;2023-04-06T01:56:02;1.60;99.90
32097;DHT22;18610;49.916;8.284;2023-04-06T01:58:30;1.60;99.90
32097;DHT22;18610;49.916;8.284;2023-04-06T02:00:57;1.60;99.90
32097;DHT22;18610;49.916;8.284;2023-04-06T02:03:24;1.70;99.90
32097;DHT22;18610;49.916;8.284;2023-04-06T02:05:51;1.70;99.90
32097;DHT22;18610;49.916;8.284;2023-04-06T02:08:18;1.60;99.90
32097;DHT22;18610;49.916;8.284;2023-04-06T02:10:44;1.70;99.90
32097;DHT22;18610;49.916;8.284;2023-04-06T02:13:11;1.70;99.90
32097;DHT22;18610;49.916;8.284;2023-04-06T02:15:39;1.50;99.90
32097;DHT22;18610;49.916;8.284;2023-04-06T02:18:06;1.40;99.90
32097;DHT22;18610;49.916;8.284;2023-04-06T02:20:33;1.30;99.90
32097;DHT22;18610;49.916;8.284;2023-04-06T02:23:00;1.30;99.90
32097;DHT22;18610;49.916;8.284;2023-04-06T02:25:27;1.40;99.90
32097;DHT22;18610;49.916;8.284;2023-04-06T02:27:54;1.50;99.90
32097;DHT22;18610;49.916;8.284;2023-04-06T02:30:21;1.50;99.90
32097;DHT22;18610;49.916;8.284;2023-04-06T02:32:49;1.50;99.90
32097;DHT22;18610;49.916;8.284;2023-04-06T02:35:16;1.50;99.90
32097;DHT22;18610;49.916;8.284;2023-04-06T02:37:43;1.50;99.90
32097;DHT22;18610;49.916;8.284;2023-04-06T02:40:10;1.30;99.90
32097;DHT22;18610;49.916;8.284;2023-04-06T02:42:37;1.20;99.90
32097;DHT22;18610;49.916;8.284;2023-04-06T02:45:05;1.00;99.90
32097;DHT22;18610;49.916;8.284;2023-04-06T02:47:32;1.00;99.90
32097;DHT22;18610;49.916;8.284;2023-04-06T02:50:00;0.90;99.90
32097;DHT22;18610;49.916;8.284;2023-04-06T02:52:27;0.90;99.90
32097;DHT22;18610;49.916;8.284;2023-04-06T02:54:54;0.80;99.90
32097;DHT22;18610;49.916;8.284;2023-04-06T02:57:21;0.80;99.90
32097;DHT22;18610;49.916;8.284;2023-04-06T02:59:48;0.90;99.90
32097;DHT22;18610;49.916;8.284;2023-04-06T03:02:14;0.90;99.90
32097;DHT22;18610;49.916;8.284;2023-04-06T03:04:42;1.00;99.90
32097;DHT22;18610;49.916;8.284;2023-04-06T03:07:10;1.10;99.90
32097;DHT22;18610;49.916;8.284;2023-04-06T03:09:37;1.10;99.90
32097;DHT22;18610;49.916;8.284;2023-04-06T03:12:04;1.10;99.90
32097;DHT22;18610;49.916;8.284;2023-04-06T03:14:31;1.20;99.90
32097;DHT22;18610;49.916;8.284;2023-04-06T03:16:58;1.20;99.90
32097;DHT22;18610;49.916;8.284;2023-04-06T03:19:25;1.10;99.90
32097;DHT22;18610;49.916;8.284;2023-04-06T03:21:51;1.10;99.90
32097;DHT22;18610;49.916;8.284;2023-04-06T03:24:20;1.00;99.90
32097;DHT22;18610;49.916;8.284;2023-04-06T03:26:46;1.00;99.90
32097;DHT22;18610;49.916;8.284;2023-04-06T03:29:13;1.00;99.90
32097;DHT22;18610;49.916;8.284;2023-04-06T03:31:40;1.00;99.90
32097;DHT22;18610;49.916;8.284;2023-04-06T03:34:07;1.00;99.90
32097;DHT22;18610;49.916;8.284;2023-04-06T03:36:34;1.10;99.90
32097;DHT22;18610;49.916;8.284;2023-04-06T03:39:01;1.10;99.90
32097;DHT22;18610;49.916;8.284;2023-04-06T03:41:29;1.20;99.90
32097;DHT22;18610;49.916;8.284;2023-04-06T03:43:56;1.20;99.90
32097;DHT22;18610;49.916;8.284;2023-04-06T03:46:23;1.00;99.90
32097;DHT22;18610;49.916;8.284;2023-04-06T03:48:50;0.90;99.90
32097;DHT22;18610;49.916;8.284;2023-04-06T03:51:17;0.80;99.90
32097;DHT22;18610;49.916;8.284;2023-04-06T03:53:44;0.80;99.90
32097;DHT22;18610;49.916;8.284;2023-04-06T03:56:10;0.80;99.90
32097;DHT22;18610;49.916;8.284;2023-04-06T03:58:39;0.80;99.90
32097;DHT22;18610;49.916;8.284;2023-04-06T04:01:05;0.90;99.90
32097;DHT22;18610;49.916;8.284;2023-04-06T04:03:32;0.90;99.90
32097;DHT22;18610;49.916;8.284;2023-04-06T04:05:59;0.90;99.90
32097;DHT22;18610;49.916;8.284;2023-04-06T04:08:26;0.90;99.90
32097;DHT22;18610;49.916;8.284;2023-04-06T04:10:52;0.90;99.90
32097;DHT22;18610;49.916;8.284;2023-04-06T04:13:19;0.90;99.90
32097;DHT22;18610;49.916;8.284;2023-04-06T04:15:47;0.80;99.90
32097;DHT22;18610;49.916;8.284;2023-04-06T04:18:14;0.70;99.90
32097;DHT22;18610;49.916;8.284;2023-04-06T04:20:41;0.70;99.90
32097;DHT22;18610;49.916;8.284;2023-04-06T04:23:08;0.80;99.90
32097;DHT22;18610;49.916;8.284;2023-04-06T04:25:35;0.90;99.90
32097;DHT22;18610;49.916;8.284;2023-04-06T04:28:02;0.90;99.90
32097;DHT22;18610;49.916;8.284;2023-04-06T04:30:29;0.90;99.90
32097;DHT22;18610;49.916;8.284;2023-04-06T04:32:57;0.80;99.90
32097;DHT22;18610;49.916;8.284;2023-04-06T04:35:23;0.80;99.90
32097;DHT22;18610;49.916;8.284;2023-04-06T04:37:50;0.70;99.90
32097;DHT22;18610;49.916;8.284;2023-04-06T04:40:17;0.70;99.90
32097;DHT22;18610;49.916;8.284;2023-04-06T04:42:44;0.60;99.90
32097;DHT22;18610;49.916;8.284;2023-04-06T04:45:11;0.60;99.90
32097;DHT22;18610;49.916;8.284;2023-04-06T04:47:38;0.50;99.90
32097;DHT22;18610;49.916;8.284;2023-04-06T04:50:07;0.50;99.90
32097;DHT22;18610;49.916;8.284;2023-04-06T04:52:34;0.40;99.90
32097;DHT22;18610;49.916;8.284;2023-04-06T04:55:01;0.40;99.90
32097;DHT22;18610;49.916;8.284;2023-04-06T04:57:28;0.50;99.90
32097;DHT22;18610;49.916;8.284;2023-04-06T04:59:55;0.50;99.90
32097;DHT22;18610;49.916;8.284;2023-04-06T05:02:22;0.50;99.90
32097;DHT22;18610;49.916;8.284;2023-04-06T05:04:49;0.50;99.90
32097;DHT22;18610;49.916;8.284;2023-04-06T05:07:17;0.40;99.90
32097;DHT22;18610;49.916;8.284;2023-04-06T05:09:46;0.50;99.90
32097;DHT22;18610;49.916;8.284;2023-04-06T05:12:13;0.50;99.90
32097;DHT22;18610;49.916;8.284;2023-04-06T05:14:40;0.50;99.90
32097;DHT22;18610;49.916;8.284;2023-04-06T05:17:07;0.60;99.90
32097;DHT22;18610;49.916;8.284;2023-04-06T05:19:34;0.60;99.90
32097;DHT22;18610;49.916;8.284;2023-04-06T05:22:01;0.60;99.90
32097;DHT22;18610;49.916;8.284;2023-04-06T05:24:29;0.70;99.90
32097;DHT22;18610;49.916;8.284;2023-04-06T05:26:56;0.70;99.90
32097;DHT22;18610;49.916;8.284;2023-04-06T05:29:23;0.70;99.90
32097;DHT22;18610;49.916;8.284;2023-04-06T05:31:50;0.70;99.90
32097;DHT22;18610;49.916;8.284;2023-04-06T05:34:17;0.90;99.90
32097;DHT22;18610;49.916;8.284;2023-04-06T05:36:44;0.90;99.90
32097;DHT22;18610;49.916;8.284;2023-04-06T05:39:12;1.00;99.90
32097;DHT22;18610;49.916;8.284;2023-04-06T05:41:40;1.10;99.90
32097;DHT22;18610;49.916;8.284;2023-04-06T05:44:07;1.30;99.90
32097;DHT22;18610;49.916;8.284;2023-04-06T05:46:34;1.40;99.90
32097;DHT22;18610;49.916;8.284;2023-04-06T05:49:01;1.50;99.90
32097;DHT22;18610;49.916;8.284;2023-04-06T05:51:28;1.60;99.90
32097;DHT22;18610;49.916;8.284;2023-04-06T05:53:54;1.70;99.90
32097;DHT22;18610;49.916;8.284;2023-04-06T05:56:21;1.80;99.90
32097;DHT22;18610;49.916;8.284;2023-04-06T05:58:50;1.90;99.90
32097;DHT22;18610;49.916;8.284;2023-04-06T06:01:17;1.90;99.90
32097;DHT22;18610;49.916;8.284;2023-04-06T06:03:44;2.10;99.90
32097;DHT22;18610;49.916;8.284;2023-04-06T06:06:11;2.30;99.90
32097;DHT22;18610;49.916;8.284;2023-04-06T06:08:37;2.30;99.90
32097;DHT22;18610;49.916;8.284;2023-04-06T06:11:04;2.40;99.90
32097;DHT22;18610;49.916;8.284;2023-04-06T06:13:31;2.50;99.90
32097;DHT22;18610;49.916;8.284;2023-04-06T06:16:00;2.70;99.90
32097;DHT22;18610;49.916;8.284;2023-04-06T06:18:30;2.80;99.90
32097;DHT22;18610;49.916;8.284;2023-04-06T06:20:57;2.90;99.90
32097;DHT22;18610;49.916;8.284;2023-04-06T06:23:24;3.10;99.90
32097;DHT22;18610;49.916;8.284;2023-04-06T06:25:50;3.10;99.90
32097;DHT22;18610;49.916;8.284;2023-04-06T06:28:17;3.20;99.90
32097;DHT22;18610;49.916;8.284;2023-04-06T06:30:44;3.30;99.90
32097;DHT22;18610;49.916;8.284;2023-04-06T06:33:13;3.40;99.90
32097;DHT22;18610;49.916;8.284;2023-04-06T06:35:40;3.40;99.90
32097;DHT22;18610;49.916;8.284;2023-04-06T06:38:06;3.50;99.90
32097;DHT22;18610;49.916;8.284;2023-04-06T06:40:33;3.70;99.90
32097;DHT22;18610;49.916;8.284;2023-04-06T06:43:00;3.80;99.90
32097;DHT22;18610;49.916;8.284;2023-04-06T06:45:27;3.90;99.90
32097;DHT22;18610;49.916;8.284;2023-04-06T06:47:54;4.10;99.90
32097;DHT22;18610;49.916;8.284;2023-04-06T06:50:23;4.20;99.90
32097;DHT22;18610;49.916;8.284;2023-04-06T06:52:50;4.40;99.90
32097;DHT22;18610;49.916;8.284;2023-04-06T06:55:17;4.50;99.90
32097;DHT22;18610;49.916;8.284;2023-04-06T06:57:45;4.70;99.90
32097;DHT22;18610;49.916;8.284;2023-04-06T07:00:13;4.90;99.90
32097;DHT22;18610;49.916;8.284;2023-04-06T07:02:40;5.00;99.90
32097;DHT22;18610;49.916;8.284;2023-04-06T07:05:08;5.10;99.90
32097;DHT22;18610;49.916;8.284;2023-04-06T07:07:36;5.20;99.90
32097;DHT22;18610;49.916;8.284;2023-04-06T07:10:03;5.30;99.90
32097;DHT22;18610;49.916;8.284;2023-04-06T07:12:30;5.50;99.90
32097;DHT22;18610;49.916;8.284;2023-04-06T07:14:57;5.60;99.90
32097;DHT22;18610;49.916;8.284;2023-04-06T07:17:24;5.80;99.90
32097;DHT22;18610;49.916;8.284;2023-04-06T07:19:50;6.00;99.90
32097;DHT22;18610;49.916;8.284;2023-04-06T07:22:17;6.20;99.90
32097;DHT22;18610;49.916;8.284;2023-04-06T07:24:46;6.40;99.90
32097;DHT22;18610;49.916;8.284;2023-04-06T07:27:12;6.50;99.90
32097;DHT22;18610;49.916;8.284;2023-04-06T07:29:39;6.70;99.90
32097;DHT22;18610;49.916;8.284;2023-04-06T07:32:06;6.90;98.40
32097;DHT22;18610;49.916;8.284;2023-04-06T07:34:33;7.00;97.40
32097;DHT22;18610;49.916;8.284;2023-04-06T07:37:00;7.20;96.80
32097;DHT22;18610;49.916;8.284;2023-04-06T07:39:28;7.20;97.30
32097;DHT22;18610;49.916;8.284;2023-04-06T07:41:57;7.40;96.00
32097;DHT22;18610;49.916;8.284;2023-04-06T07:44:24;7.50;95.40
32097;DHT22;18610;49.916;8.284;2023-04-06T07:46:51;7.50;96.30
32097;DHT22;18610;49.916;8.284;2023-04-06T07:49:18;7.60;95.90
32097;DHT22;18610;49.916;8.284;2023-04-06T07:51:46;7.80;94.90
32097;DHT22;18610;49.916;8.284;2023-04-06T07:54:13;8.00;94.30
32097;DHT22;18610;49.916;8.284;2023-04-06T07:56:39;8.20;93.50
32097;DHT22;18610;49.916;8.284;2023-04-06T07:59:08;8.30;93.00
32097;DHT22;18610;49.916;8.284;2023-04-06T08:01:36;8.50;93.50
32097;DHT22;18610;49.916;8.284;2023-04-06T08:04:03;8.70;92.20
32097;DHT22;18610;49.916;8.284;2023-04-06T08:06:30;8.80;91.90
32097;DHT22;18610;49.916;8.284;2023-04-06T08:08:57;9.00;92.00
32097;DHT22;18610;49.916;8.284;2023-04-06T08:11:24;9.30;91.00
32097;DHT22;18610;49.916;8.284;2023-04-06T08:13:53;9.40;90.50
32097;DHT22;18610;49.916;8.284;2023-04-06T08:16:22;9.60;90.00
32097;DHT22;18610;49.916;8.284;2023-04-06T08:18:49;9.80;87.00
32097;DHT22;18610;49.916;8.284;2023-04-06T08:21:16;9.90;85.50
32097;DHT22;18610;49.916;8.284;2023-04-06T08:23:43;10.10;85.00
32097;DHT22;18610;49.916;8.284;2023-04-06T08:26:11;10.20;84.10
32097;DHT22;18610;49.916;8.284;2023-04-06T08:28:38;10.30;82.00
32097;DHT22;18610;49.916;8.284;2023-04-06T08:31:05;10.30;80.90
32097;DHT22;18610;49.916;8.284;2023-04-06T08:33:33;10.30;81.60
32097;DHT22;18610;49.916;8.284;2023-04-06T08:36:08;10.20;81.80
32097;DHT22;18610;49.916;8.284;2023-04-06T08:38:35;10.20;82.50
32097;DHT22;18610;49.916;8.284;2023-04-06T08:41:07;10.20;82.50
32097;DHT22;18610;49.916;8.284;2023-04-06T08:43:35;10.20;84.10
32097;DHT22;18610;49.916;8.284;2023-04-06T08:46:08;10.00;84.20
32097;DHT22;18610;49.916;8.284;2023-04-06T08:48:38;10.00;84.70
32097;DHT22;18610;49.916;8.284;2023-04-06T08:51:05;10.20;86.30
32097;DHT22;18610;49.916;8.284;2023-04-06T08:53:32;10.20;85.60
32097;DHT22;18610;49.916;8.284;2023-04-06T08:55:59;10.30;85.10
32097;DHT22;18610;49.916;8.284;2023-04-06T08:58:31;10.40;84.60
32097;DHT22;18610;49.916;8.284;2023-04-06T09:00:59;10.70;86.50
32097;DHT22;18610;49.916;8.284;2023-04-06T09:03:27;11.00;88.80
32097;DHT22;18610;49.916;8.284;2023-04-06T09:05:56;11.30;89.60
32097;DHT22;18610;49.916;8.284;2023-04-06T09:08:23;11.60;86.00
32097;DHT22;18610;49.916;8.284;2023-04-06T09:10:50;11.90;85.50
32097;DHT22;18610;49.916;8.284;2023-04-06T09:13:17;12.10;80.20
32097;DHT22;18610;49.916;8.284;2023-04-06T09:15:44;12.10;78.90
32097;DHT22;18610;49.916;8.284;2023-04-06T09:18:11;12.20;79.40
32097;DHT22;18610;49.916;8.284;2023-04-06T09:20:38;12.40;78.10
32097;DHT22;18610;49.916;8.284;2023-04-06T09:23:06;12.70;78.40
32097;DHT22;18610;49.916;8.284;2023-04-06T09:25:43;12.90;77.60
32097;DHT22;18610;49.916;8.284;2023-04-06T09:28:10;13.10;76.60
32097;DHT22;18610;49.916;8.284;2023-04-06T09:30:47;13.20;76.30
32097;DHT22;18610;49.916;8.284;2023-04-06T09:33:22;13.40;74.20
32097;DHT22;18610;49.916;8.284;2023-04-06T09:35:49;13.50;73.60
32097;DHT22;18610;49.916;8.284;2023-04-06T09:38:17;13.60;73.30
32097;DHT22;18610;49.916;8.284;2023-04-06T09:40:49;13.70;71.90
32097;DHT22;18610;49.916;8.284;2023-04-06T09:43:23;13.90;70.80
32097;DHT22;18610;49.916;8.284;2023-04-06T09:45:51;14.00;67.60
32097;DHT22;18610;49.916;8.284;2023-04-06T09:48:20;13.90;68.10
32097;DHT22;18610;49.916;8.284;2023-04-06T09:50:49;13.80;70.10
32097;DHT22;18610;49.916;8.284;2023-04-06T09:53:19;13.80;67.50
32097;DHT22;18610;49.916;8.284;2023-04-06T09:55:51;13.80;66.60
32097;DHT22;18610;49.916;8.284;2023-04-06T09:58:19;14.00;68.40
32097;DHT22;18610;49.916;8.284;2023-04-06T10:00:57;14.20;65.70
32097;DHT22;18610;49.916;8.284;2023-04-06T10:03:30;14.50;65.80
32097;DHT22;18610;49.916;8.284;2023-04-06T10:06:03;14.70;65.90
32097;DHT22;18610;49.916;8.284;2023-04-06T10:08:32;15.00;65.10
32097;DHT22;18610;49.916;8.284;2023-04-06T10:11:00;15.20;61.40
32097;DHT22;18610;49.916;8.284;2023-04-06T10:13:27;15.10;60.10
32097;DHT22;18610;49.916;8.284;2023-04-06T10:15:54;15.20;60.30
32097;DHT22;18610;49.916;8.284;2023-04-06T10:18:21;15.20;60.50
32097;DHT22;18610;49.916;8.284;2023-04-06T10:20:51;15.20;60.40
32097;DHT22;18610;49.916;8.284;2023-04-06T10:23:24;15.50;61.50
32097;DHT22;18610;49.916;8.284;2023-04-06T10:25:55;16.00;61.00
32097;DHT22;18610;49.916;8.284;2023-04-06T10:28:23;16.40;60.10
32097;DHT22;18610;49.916;8.284;2023-04-06T10:30:57;16.70;57.80
32097;DHT22;18610;49.916;8.284;2023-04-06T10:33:23;16.80;56.10
32097;DHT22;18610;49.916;8.284;2023-04-06T10:35:50;17.00;55.60
32097;DHT22;18610;49.916;8.284;2023-04-06T10:38:19;17.10;55.40
32097;DHT22;18610;49.916;8.284;2023-04-06T10:40:47;17.20;55.00
32097;DHT22;18610;49.916;8.284;2023-04-06T10:43:21;17.00;53.40
32097;DHT22;18610;49.916;8.284;2023-04-06T10:45:55;17.00;55.00
32097;DHT22;18610;49.916;8.284;2023-04-06T10:48:22;16.80;53.10
32097;DHT22;18610;49.916;8.284;2023-04-06T10:50:51;16.60;54.70
32097;DHT22;18610;49.916;8.284;2023-04-06T10:53:23;16.60;53.80
32097;DHT22;18610;49.916;8.284;2023-04-06T10:55:51;16.70;55.00
32097;DHT22;18610;49.916;8.284;2023-04-06T10:58:19;16.80;55.30
32097;DHT22;18610;49.916;8.284;2023-04-06T11:00:47;16.60;52.80
32097;DHT22;18610;49.916;8.284;2023-04-06T11:03:14;16.00;54.30
32097;DHT22;18610;49.916;8.284;2023-04-06T11:05:43;16.00;54.70
32097;DHT22;18610;49.916;8.284;2023-04-06T11:08:21;16.10;53.90
32097;DHT22;18610;49.916;8.284;2023-04-06T11:10:48;16.20;53.70
32097;DHT22;18610;49.916;8.284;2023-04-06T11:13:15;16.20;54.00
32097;DHT22;18610;49.916;8.284;2023-04-06T11:15:44;16.40;55.00
32097;DHT22;18610;49.916;8.284;2023-04-06T11:18:11;16.40;53.80
32097;DHT22;18610;49.916;8.284;2023-04-06T11:20:37;16.40;55.10
32097;DHT22;18610;49.916;8.284;2023-04-06T11:23:04;16.40;53.80
32097;DHT22;18610;49.916;8.284;2023-04-06T11:25:32;16.30;53.50
32097;DHT22;18610;49.916;8.284;2023-04-06T11:27:59;16.30;53.60
32097;DHT22;18610;49.916;8.284;2023-04-06T11:30:27;16.50;52.80
32097;DHT22;18610;49.916;8.284;2023-04-06T11:33:00;16.50;51.50
32097;DHT22;18610;49.916;8.284;2023-04-06T11:35:31;16.50;52.60
32097;DHT22;18610;49.916;8.284;2023-04-06T11:38:02;16.40;54.20
32097;DHT22;18610;49.916;8.284;2023-04-06T11:40:29;16.30;50.90
32097;DHT22;18610;49.916;8.284;2023-04-06T11:42:58;16.20;50.80
32097;DHT22;18610;49.916;8.284;2023-04-06T11:45:25;15.80;52.00
32097;DHT22;18610;49.916;8.284;2023-04-06T11:47:58;15.50;52.40
32097;DHT22;18610;49.916;8.284;2023-04-06T11:50:32;15.50;52.50
32097;DHT22;18610;49.916;8.284;2023-04-06T11:53:00;15.30;53.00
32097;DHT22;18610;49.916;8.284;2023-04-06T11:55:27;15.40;53.20
32097;DHT22;18610;49.916;8.284;2023-04-06T11:57:54;15.70;52.40
32097;DHT22;18610;49.916;8.284;2023-04-06T12:00:21;16.00;52.40
32097;DHT22;18610;49.916;8.284;2023-04-06T12:02:49;16.30;52.90
32097;DHT22;18610;49.916;8.284;2023-04-06T12:05:17;16.60;52.00
32097;DHT22;18610;49.916;8.284;2023-04-06T12:07:44;16.70;51.10
32097;DHT22;18610;49.916;8.284;2023-04-06T12:10:11;17.00;52.10
32097;DHT22;18610;49.916;8.284;2023-04-06T12:12:38;17.10;50.10
32097;DHT22;18610;49.916;8.284;2023-04-06T12:15:06;17.20;49.10
32097;DHT22;18610;49.916;8.284;2023-04-06T12:17:33;17.20;50.60
32097;DHT22;18610;49.916;8.284;2023-04-06T12:20:00;17.40;50.60
32097;DHT22;18610;49.916;8.284;2023-04-06T12:22:29;17.60;50.20
32097;DHT22;18610;49.916;8.284;2023-04-06T12:24:56;17.80;51.10
32097;DHT22;18610;49.916;8.284;2023-04-06T12:27:23;18.00;50.40
32097;DHT22;18610;49.916;8.284;2023-04-06T12:29:50;17.60;46.90
32097;DHT22;18610;49.916;8.284;2023-04-06T12:32:17;17.10;47.30
32097;DHT22;18610;49.916;8.284;2023-04-06T12:34:44;17.10;49.50
32097;DHT22;18610;49.916;8.284;2023-04-06T12:37:11;17.20;47.40
32097;DHT22;18610;49.916;8.284;2023-04-06T12:39:40;17.30;48.10
32097;DHT22;18610;49.916;8.284;2023-04-06T12:42:11;17.60;49.00
32097;DHT22;18610;49.916;8.284;2023-04-06T12:44:39;17.80;48.50
32097;DHT22;18610;49.916;8.284;2023-04-06T12:47:08;17.80;47.30
32097;DHT22;18610;49.916;8.284;2023-04-06T12:49:36;17.30;45.50
32097;DHT22;18610;49.916;8.284;2023-04-06T12:52:03;17.30;48.20
32097;DHT22;18610;49.916;8.284;2023-04-06T12:54:32;17.20;47.50
32097;DHT22;18610;49.916;8.284;2023-04-06T12:57:00;16.80;46.10
32097;DHT22;18610;49.916;8.284;2023-04-06T12:59:27;16.30;46.70
32097;DHT22;18610;49.916;8.284;2023-04-06T13:02:00;16.10;47.30
32097;DHT22;18610;49.916;8.284;2023-04-06T13:04:26;16.00;47.80
32097;DHT22;18610;49.916;8.284;2023-04-06T13:06:53;16.10;49.20
32097;DHT22;18610;49.916;8.284;2023-04-06T13:09:20;16.30;49.70
32097;DHT22;18610;49.916;8.284;2023-04-06T13:11:47;16.20;49.70
32097;DHT22;18610;49.916;8.284;2023-04-06T13:14:16;16.00;47.10
32097;DHT22;18610;49.916;8.284;2023-04-06T13:16:43;15.90;48.40
32097;DHT22;18610;49.916;8.284;2023-04-06T13:19:10;15.90;48.00
32097;DHT22;18610;49.916;8.284;2023-04-06T13:21:37;15.80;47.20
32097;DHT22;18610;49.916;8.284;2023-04-06T13:24:04;15.90;47.70
32097;DHT22;18610;49.916;8.284;2023-04-06T13:26:31;16.00;49.10
32097;DHT22;18610;49.916;8.284;2023-04-06T13:28:59;16.10;47.90
32097;DHT22;18610;49.916;8.284;2023-04-06T13:31:28;16.00;47.50
32097;DHT22;18610;49.916;8.284;2023-04-06T13:33:55;15.90;49.50
32097;DHT22;18610;49.916;8.284;2023-04-06T13:36:22;15.90;49.50
32097;DHT22;18610;49.916;8.284;2023-04-06T13:38:48;15.80;49.40
32097;DHT22;18610;49.916;8.284;2023-04-06T13:41:19;15.80;47.70
32097;DHT22;18610;49.916;8.284;2023-04-06T13:43:47;15.90;48.10
32097;DHT22;18610;49.916;8.284;2023-04-06T13:46:14;15.90;49.70
32097;DHT22;18610;49.916;8.284;2023-04-06T13:48:43;15.80;48.40
32097;DHT22;18610;49.916;8.284;2023-04-06T13:51:11;15.80;50.50
32097;DHT22;18610;49.916;8.284;2023-04-06T13:53:38;15.80;50.10
32097;DHT22;18610;49.916;8.284;2023-04-06T13:56:05;15.80;50.80
32097;DHT22;18610;49.916;8.284;2023-04-06T13:58:32;15.80;49.30
32097;DHT22;18610;49.916;8.284;2023-04-06T14:01:02;15.70;49.30
32097;DHT22;18610;49.916;8.284;2023-04-06T14:03:29;15.40;48.40
32097;DHT22;18610;49.916;8.284;2023-04-06T14:05:58;15.40;49.50
32097;DHT22;18610;49.916;8.284;2023-04-06T14:08:25;15.20;47.90
32097;DHT22;18610;49.916;8.284;2023-04-06T14:10:52;14.90;48.40
32097;DHT22;18610;49.916;8.284;2023-04-06T14:13:19;14.90;49.40
32097;DHT22;18610;49.916;8.284;2023-04-06T14:15:46;14.90;49.90
32097;DHT22;18610;49.916;8.284;2023-04-06T14:18:12;14.90;51.90
32097;DHT22;18610;49.916;8.284;2023-04-06T14:20:39;15.00;51.50
32097;DHT22;18610;49.916;8.284;2023-04-06T14:23:08;15.00;49.90
32097;DHT22;18610;49.916;8.284;2023-04-06T14:25:35;14.90;50.30
32097;DHT22;18610;49.916;8.284;2023-04-06T14:28:02;14.70;48.80
32097;DHT22;18610;49.916;8.284;2023-04-06T14:30:30;14.70;48.00
32097;DHT22;18610;49.916;8.284;2023-04-06T14:32:58;14.70;47.60
32097;DHT22;18610;49.916;8.284;2023-04-06T14:35:25;14.70;49.50
32097;DHT22;18610;49.916;8.284;2023-04-06T14:37:53;14.70;49.90
32097;DHT22;18610;49.916;8.284;2023-04-06T14:40:21;14.70;47.80
32097;DHT22;18610;49.916;8.284;2023-04-06T14:42:48;14.70;48.60
32097;DHT22;18610;49.916;8.284;2023-04-06T14:45:16;14.60;48.40
32097;DHT22;18610;49.916;8.284;2023-04-06T14:47:44;14.70;48.90
32097;DHT22;18610;49.916;8.284;2023-04-06T14:50:11;14.70;49.60
32097;DHT22;18610;49.916;8.284;2023-04-06T14:52:38;14.80;50.10
32097;DHT22;18610;49.916;8.284;2023-04-06T14:55:05;14.80;49.70
32097;DHT22;18610;49.916;8.284;2023-04-06T14:57:34;14.80;50.10
32097;DHT22;18610;49.916;8.284;2023-04-06T15:00:00;14.80;51.10
32097;DHT22;18610;49.916;8.284;2023-04-06T15:02:28;14.80;51.50
32097;DHT22;18610;49.916;8.284;2023-04-06T15:04:57;14.60;49.40
32097;DHT22;18610;49.916;8.284;2023-04-06T15:07:23;14.50;50.10
32097;DHT22;18610;49.916;8.284;2023-04-06T15:09:50;14.40;51.20
32097;DHT22;18610;49.916;8.284;2023-04-06T15:12:17;14.20;51.40
32097;DHT22;18610;49.916;8.284;2023-04-06T15:14:45;14.20;51.40
32097;DHT22;18610;49.916;8.284;2023-04-06T15:17:12;14.10;51.70
32097;DHT22;18610;49.916;8.284;2023-04-06T15:19:38;14.00;52.40
32097;DHT22;18610;49.916;8.284;2023-04-06T15:22:06;13.80;51.00
32097;DHT22;18610;49.916;8.284;2023-04-06T15:24:32;13.80;52.30
32097;DHT22;18610;49.916;8.284;2023-04-06T15:26:59;13.70;52.90
32097;DHT22;18610;49.916;8.284;2023-04-06T15:29:26;13.60;52.30
32097;DHT22;18610;49.916;8.284;2023-04-06T15:31:54;13.50;53.10
32097;DHT22;18610;49.916;8.284;2023-04-06T15:34:21;13.50;53.40
32097;DHT22;18610;49.916;8.284;2023-04-06T15:36:48;13.40;53.30
32097;DHT22;18610;49.916;8.284;2023-04-06T15:39:14;13.30;53.80
32097;DHT22;18610;49.916;8.284;2023-04-06T15:41:41;13.30;53.90